sensor_id;sensor_type;location;lat;lon;timestamp;pressure;altitude;pressure_sealevel;temperature;humidity
6028;BME280;3042;43.194;27.646;2023-03-18T00:00:41;102271.03;;;13.32;58.79
6028;BME280;3042;43.194;27.646;2023-03-18T00:03:09;102269.34;;;13.47;58.34
6028;BME280;3042;43.194;27.646;2023-03-18T00:05:36;102265.38;;;13.39;57.95
6028;BME280;3042;43.194;27.646;2023-03-18T00:08:05;102270.78;;;13.42;58.47
6028;BME280;3042;43.194;27.646;2023-03-18T00:10:33;102129.84;;;12.68;58.32
6028;BME280;3042;43.194;27.646;2023-03-18T00:13:00;102254.28;;;13.56;57.99
6028;BME280;3042;43.194;27.646;2023-03-18T00:15:28;102260.72;;;13.48;57.69
6028;BME280;3042;43.194;27.646;2023-03-18T00:17:56;102210.44;;;13.31;57.46
6028;BME280;3042;43.194;27.646;2023-03-18T00:20:24;102264.34;;;13.35;58.42
6028;BME280;3042;43.194;27.646;2023-03-18T00:23:05;102252.88;;;13.46;58.38
6028;BME280;3042;43.194;27.646;2023-03-18T00:25:33;102190.06;;;12.93;58.28
6028;BME280;3042;43.194;27.646;2023-03-18T00:28:00;102267.09;;;13.23;58.35
6028;BME280;3042;43.194;27.646;2023-03-18T00:30:27;102280.56;;;12.88;59.15
6028;BME280;3042;43.194;27.646;2023-03-18T00:32:55;102281.06;;;12.67;59.05
6028;BME280;3042;43.194;27.646;2023-03-18T00:35:23;102164.09;;;11.64;59.05
6028;BME280;3042;43.194;27.646;2023-03-18T00:37:52;102311.84;;;12.20;58.68
6028;BME280;3042;43.194;27.646;2023-03-18T00:40:22;102304.13;;;12.21;58.94
6028;BME280;3042;43.194;27.646;2023-03-18T00:42:54;102308.50;;;11.94;58.98
6028;BME280;3042;43.194;27.646;2023-03-18T00:45:32;102324.09;;;11.82;59.37
6028;BME280;3042;43.194;27.646;2023-03-18T00:47:59;102258.06;;;11.36;59.33
6028;BME280;3042;43.194;27.646;2023-03-18T00:50:26;102215.44;;;11.04;59.56
6028;BME280;3042;43.194;27.646;2023-03-18T00:52:54;102307.66;;;11.55;59.17
6028;BME280;3042;43.194;27.646;2023-03-18T00:55:22;102175.03;;;10.80;59.11
6028;BME280;3042;43.194;27.646;2023-03-18T00:57:50;102256.03;;;11.05;59.23
6028;BME280;3042;43.194;27.646;2023-03-18T01:00:18;102308.63;;;11.44;59.44
6028;BME280;3042;43.194;27.646;2023-03-18T01:02:46;102321.34;;;11.28;59.25
6028;BME280;3042;43.194;27.646;2023-03-18T01:05:14;101904.88;;;8.91;59.68
6028;BME280;3042;43.194;27.646;2023-03-18T01:07:42;102267.75;;;10.87;59.66
6028;BME280;3042;43.194;27.646;2023-03-18T01:10:10;102310.59;;;11.22;60.32
6028;BME280;3042;43.194;27.646;2023-03-18T01:12:41;102266.56;;;10.70;60.06
6028;BME280;3042;43.194;27.646;2023-03-18T01:15:09;102328.25;;;11.02;60.53
6028;BME280;3042;43.194;27.646;2023-03-18T01:17:37;102335.91;;;10.75;60.64
6028;BME280;3042;43.194;27.646;2023-03-18T01:20:05;102321.88;;;10.97;60.77
6028;BME280;3042;43.194;27.646;2023-03-18T01:22:32;102330.16;;;10.80;61.13
6028;BME280;3042;43.194;27.646;2023-03-18T01:24:59;102323.81;;;10.88;61.12
6028;BME280;3042;43.194;27.646;2023-03-18T01:27:27;102267.09;;;10.52;61.09
6028;BME280;3042;43.194;27.646;2023-03-18T01:29:55;102323.13;;;10.90;61.48
6028;BME280;3042;43.194;27.646;2023-03-18T01:32:22;102318.25;;;10.82;61.49
6028;BME280;3042;43.194;27.646;2023-03-18T01:34:49;102324.94;;;10.91;61.57
6028;BME280;3042;43.194;27.646;2023-03-18T01:37:16;102314.03;;;10.70;61.81
6028;BME280;3042;43.194;27.646;2023-03-18T01:39:44;102329.53;;;10.70;62.04
6028;BME280;3042;43.194;27.646;2023-03-18T01:42:11;102253.03;;;10.35;61.93
6028;BME280;3042;43.194;27.646;2023-03-18T01:44:39;102319.34;;;10.85;62.05
6028;BME280;3042;43.194;27.646;2023-03-18T01:47:08;102325.94;;;10.68;62.13
6028;BME280;3042;43.194;27.646;2023-03-18T01:49:39;102325.50;;;10.62;62.37
6028;BME280;3042;43.194;27.646;2023-03-18T01:52:08;102248.81;;;10.01;62.71
6028;BME280;3042;43.194;27.646;2023-03-18T01:54:39;102325.66;;;10.52;63.22
6028;BME280;3042;43.194;27.646;2023-03-18T01:57:07;102339.06;;;10.34;63.22
6028;BME280;3042;43.194;27.646;2023-03-18T01:59:38;102336.16;;;10.30;63.56
6028;BME280;3042;43.194;27.646;2023-03-18T02:02:09;102338.19;;;10.10;64.28
6028;BME280;3042;43.194;27.646;2023-03-18T02:04:42;102154.34;;;8.95;64.10
6028;BME280;3042;43.194;27.646;2023-03-18T02:07:15;102231.59;;;9.52;64.61
6028;BME280;3042;43.194;27.646;2023-03-18T02:09:42;102330.31;;;10.09;64.37
6028;BME280;3042;43.194;27.646;2023-03-18T02:12:10;102253.50;;;9.69;64.82
6028;BME280;3042;43.194;27.646;2023-03-18T02:14:39;102258.66;;;9.69;65.00
6028;BME280;3042;43.194;27.646;2023-03-18T02:17:11;102305.59;;;10.24;65.02
6028;BME280;3042;43.194;27.646;2023-03-18T02:19:49;102309.75;;;10.22;65.24
6028;BME280;3042;43.194;27.646;2023-03-18T02:22:24;102205.91;;;9.54;65.59
6028;BME280;3042;43.194;27.646;2023-03-18T02:25:01;102295.03;;;10.21;65.60
6028;BME280;3042;43.194;27.646;2023-03-18T02:27:33;102154.69;;;9.35;65.56
6028;BME280;3042;43.194;27.646;2023-03-18T02:30:05;102289.88;;;10.21;65.59
6028;BME280;3042;43.194;27.646;2023-03-18T02:32:33;102305.28;;;10.08;65.59
6028;BME280;3042;43.194;27.646;2023-03-18T02:35:04;102294.16;;;10.09;65.90
6028;BME280;3042;43.194;27.646;2023-03-18T02:37:31;102307.69;;;9.81;65.64
6028;BME280;3042;43.194;27.646;2023-03-18T02:40:15;102273.13;;;9.79;66.25
6028;BME280;3042;43.194;27.646;2023-03-18T02:42:46;102303.41;;;9.70;66.42
6028;BME280;3042;43.194;27.646;2023-03-18T02:45:22;102310.34;;;9.71;66.67
6028;BME280;3042;43.194;27.646;2023-03-18T02:47:52;102302.75;;;9.61;67.05
6028;BME280;3042;43.194;27.646;2023-03-18T02:50:20;102312.03;;;9.59;66.24
6028;BME280;3042;43.194;27.646;2023-03-18T02:52:49;102293.03;;;9.11;67.11
6028;BME280;3042;43.194;27.646;2023-03-18T02:55:16;102325.03;;;9.25;66.97
6028;BME280;3042;43.194;27.646;2023-03-18T02:57:44;102323.13;;;9.34;67.80
6028;BME280;3042;43.194;27.646;2023-03-18T03:00:12;102314.06;;;9.39;67.75
6028;BME280;3042;43.194;27.646;2023-03-18T03:02:39;102178.69;;;8.41;67.89
6028;BME280;3042;43.194;27.646;2023-03-18T03:05:07;102308.78;;;9.49;67.36
6028;BME280;3042;43.194;27.646;2023-03-18T03:07:35;102311.16;;;9.46;68.10
6028;BME280;3042;43.194;27.646;2023-03-18T03:10:03;102266.06;;;9.29;68.19
6028;BME280;3042;43.194;27.646;2023-03-18T03:12:30;102312.25;;;9.38;68.08
6028;BME280;3042;43.194;27.646;2023-03-18T03:14:58;102309.00;;;9.52;68.13
6028;BME280;3042;43.194;27.646;2023-03-18T03:17:25;102318.63;;;9.32;68.26
6028;BME280;3042;43.194;27.646;2023-03-18T03:19:53;102316.03;;;9.20;68.42
6028;BME280;3042;43.194;27.646;2023-03-18T03:22:20;102313.91;;;9.26;68.48
6028;BME280;3042;43.194;27.646;2023-03-18T03:24:48;102260.03;;;8.95;68.81
6028;BME280;3042;43.194;27.646;2023-03-18T03:27:15;102317.91;;;9.11;68.84
6028;BME280;3042;43.194;27.646;2023-03-18T03:29:42;102133.91;;;7.95;68.65
6028;BME280;3042;43.194;27.646;2023-03-18T03:32:10;102312.53;;;9.07;68.99
6028;BME280;3042;43.194;27.646;2023-03-18T03:34:37;102320.00;;;8.93;68.80
6028;BME280;3042;43.194;27.646;2023-03-18T03:37:04;102251.69;;;8.42;69.33
6028;BME280;3042;43.194;27.646;2023-03-18T03:39:32;102320.72;;;8.80;69.87
6028;BME280;3042;43.194;27.646;2023-03-18T03:41:59;102323.19;;;8.78;69.91
6028;BME280;3042;43.194;27.646;2023-03-18T03:44:26;102317.06;;;8.88;69.94
6028;BME280;3042;43.194;27.646;2023-03-18T03:46:53;102313.81;;;8.91;70.13
6028;BME280;3042;43.194;27.646;2023-03-18T03:49:22;102256.88;;;8.76;70.32
6028;BME280;3042;43.194;27.646;2023-03-18T03:51:49;102316.13;;;8.76;70.45
6028;BME280;3042;43.194;27.646;2023-03-18T03:54:16;102318.16;;;8.80;70.15
6028;BME280;3042;43.194;27.646;2023-03-18T03:56:44;102290.69;;;8.69;69.96
6028;BME280;3042;43.194;27.646;2023-03-18T03:59:12;102325.41;;;8.74;70.57
6028;BME280;3042;43.194;27.646;2023-03-18T04:01:39;102326.25;;;8.62;71.02
6028;BME280;3042;43.194;27.646;2023-03-18T04:04:06;102330.09;;;8.68;71.14
6028;BME280;3042;43.194;27.646;2023-03-18T04:06:34;102203.22;;;8.04;70.99
6028;BME280;3042;43.194;27.646;2023-03-18T04:09:02;102314.00;;;8.82;71.10
6028;BME280;3042;43.194;27.646;2023-03-18T04:11:29;102316.91;;;8.75;71.19
6028;BME280;3042;43.194;27.646;2023-03-18T04:13:56;102324.81;;;8.66;71.77
6028;BME280;3042;43.194;27.646;2023-03-18T04:16:23;102317.75;;;8.63;71.24
6028;BME280;3042;43.194;27.646;2023-03-18T04:18:50;102327.75;;;8.71;71.30
6028;BME280;3042;43.194;27.646;2023-03-18T04:21:17;102317.59;;;8.84;71.42
6028;BME280;3042;43.194;27.646;2023-03-18T04:23:45;102315.34;;;8.77;71.31
6028;BME280;3042;43.194;27.646;2023-03-18T04:26:13;102321.81;;;8.72;71.54
6028;BME280;3042;43.194;27.646;2023-03-18T04:28:40;102318.06;;;8.78;71.21
6028;BME280;3042;43.194;27.646;2023-03-18T04:31:07;102235.06;;;8.16;71.71
6028;BME280;3042;43.194;27.646;2023-03-18T04:33:34;102332.13;;;8.72;72.16
6028;BME280;3042;43.194;27.646;2023-03-18T04:36:01;102227.66;;;8.09;72.59
6028;BME280;3042;43.194;27.646;2023-03-18T04:38:28;102325.41;;;8.74;72.54
6028;BME280;3042;43.194;27.646;2023-03-18T04:40:56;102320.97;;;8.83;72.12
6028;BME280;3042;43.194;27.646;2023-03-18T04:43:23;102329.91;;;8.76;72.53
6028;BME280;3042;43.194;27.646;2023-03-18T04:45:50;102334.34;;;8.67;73.20
6028;BME280;3042;43.194;27.646;2023-03-18T04:48:18;102163.19;;;7.86;72.52
6028;BME280;3042;43.194;27.646;2023-03-18T04:50:45;102329.78;;;8.75;72.50
6028;BME280;3042;43.194;27.646;2023-03-18T04:53:12;102260.13;;;8.51;73.43
6028;BME280;3042;43.194;27.646;2023-03-18T04:55:39;102210.69;;;8.23;72.64
6028;BME280;3042;43.194;27.646;2023-03-18T04:58:07;102334.03;;;9.08;72.82
6028;BME280;3042;43.194;27.646;2023-03-18T05:00:34;102335.38;;;9.03;73.98
6028;BME280;3042;43.194;27.646;2023-03-18T05:03:01;102328.88;;;9.08;74.48
6028;BME280;3042;43.194;27.646;2023-03-18T05:05:29;102250.00;;;8.64;73.42
6028;BME280;3042;43.194;27.646;2023-03-18T05:07:55;102197.63;;;8.54;73.31
6028;BME280;3042;43.194;27.646;2023-03-18T05:10:22;102325.34;;;9.18;73.27
6028;BME280;3042;43.194;27.646;2023-03-18T05:12:49;102175.72;;;8.71;72.41
6028;BME280;3042;43.194;27.646;2023-03-18T05:15:19;102306.66;;;9.79;73.20
6028;BME280;3042;43.194;27.646;2023-03-18T05:17:46;102264.16;;;9.50;72.54
6028;BME280;3042;43.194;27.646;2023-03-18T05:20:13;101892.97;;;7.50;72.22
6028;BME280;3042;43.194;27.646;2023-03-18T05:22:40;102301.13;;;10.10;71.15
6028;BME280;3042;43.194;27.646;2023-03-18T05:25:08;102109.59;;;9.42;71.53
6028;BME280;3042;43.194;27.646;2023-03-18T05:27:37;102288.66;;;10.53;69.91
6028;BME280;3042;43.194;27.646;2023-03-18T05:30:06;101760.41;;;8.02;69.02
6028;BME280;3042;43.194;27.646;2023-03-18T05:32:35;101933.66;;;9.34;68.19
6028;BME280;3042;43.194;27.646;2023-03-18T05:35:02;102259.66;;;11.60;68.22
6028;BME280;3042;43.194;27.646;2023-03-18T05:37:30;102061.06;;;11.03;68.39
6028;BME280;3042;43.194;27.646;2023-03-18T05:39:57;102102.72;;;12.04;67.15
6028;BME280;3042;43.194;27.646;2023-03-18T05:42:24;102159.44;;;13.02;65.81
6028;BME280;3042;43.194;27.646;2023-03-18T05:44:51;102187.94;;;13.78;63.63
6028;BME280;3042;43.194;27.646;2023-03-18T05:47:19;102174.22;;;14.29;62.59
6028;BME280;3042;43.194;27.646;2023-03-18T05:49:48;102041.94;;;14.01;60.75
6028;BME280;3042;43.194;27.646;2023-03-18T05:52:15;101818.00;;;13.05;60.21
6028;BME280;3042;43.194;27.646;2023-03-18T05:54:42;102150.16;;;14.84;58.86
6028;BME280;3042;43.194;27.646;2023-03-18T05:57:09;102153.31;;;15.13;58.02
6028;BME280;3042;43.194;27.646;2023-03-18T05:59:36;102153.00;;;15.25;57.41
6028;BME280;3042;43.194;27.646;2023-03-18T06:02:03;102100.50;;;14.97;58.19
6028;BME280;3042;43.194;27.646;2023-03-18T06:04:30;102162.22;;;15.00;57.04
6028;BME280;3042;43.194;27.646;2023-03-18T06:06:59;102152.97;;;15.43;57.33
6028;BME280;3042;43.194;27.646;2023-03-18T06:09:27;102149.56;;;15.26;57.45
6028;BME280;3042;43.194;27.646;2023-03-18T06:11:55;102128.16;;;14.77;57.39
6028;BME280;3042;43.194;27.646;2023-03-18T06:14:23;101904.13;;;13.31;57.22
6028;BME280;3042;43.194;27.646;2023-03-18T06:16:53;102171.28;;;14.90;57.53
6028;BME280;3042;43.194;27.646;2023-03-18T06:19:20;102167.25;;;14.79;57.92
6028;BME280;3042;43.194;27.646;2023-03-18T06:21:48;102122.78;;;14.40;57.66
6028;BME280;3042;43.194;27.646;2023-03-18T06:24:17;102047.47;;;14.07;58.27
6028;BME280;3042;43.194;27.646;2023-03-18T06:26:44;102185.44;;;14.45;59.03
6028;BME280;3042;43.194;27.646;2023-03-18T06:29:11;102180.66;;;14.36;59.28
6028;BME280;3042;43.194;27.646;2023-03-18T06:31:38;102181.78;;;14.25;59.31
6028;BME280;3042;43.194;27.646;2023-03-18T06:34:05;102194.78;;;14.08;59.29
6028;BME280;3042;43.194;27.646;2023-03-18T06:36:32;102142.44;;;14.35;59.41
6028;BME280;3042;43.194;27.646;2023-03-18T06:38:59;102108.84;;;14.56;60.33
6028;BME280;3042;43.194;27.646;2023-03-18T06:41:27;102107.28;;;16.06;60.95
6028;BME280;3042;43.194;27.646;2023-03-18T06:43:54;102097.84;;;16.92;61.06
6028;BME280;3042;43.194;27.646;2023-03-18T06:46:21;102080.53;;;17.62;59.10
6028;BME280;3042;43.194;27.646;2023-03-18T06:48:48;102069.25;;;18.37;57.75
6028;BME280;3042;43.194;27.646;2023-03-18T06:51:15;102074.16;;;18.79;56.46
6028;BME280;3042;43.194;27.646;2023-03-18T06:53:42;102056.00;;;19.42;55.18
6028;BME280;3042;43.194;27.646;2023-03-18T06:56:09;102059.09;;;19.57;54.84
6028;BME280;3042;43.194;27.646;2023-03-18T06:58:42;102062.53;;;19.56;55.06
6028;BME280;3042;43.194;27.646;2023-03-18T07:01:09;102089.25;;;19.14;54.87
6028;BME280;3042;43.194;27.646;2023-03-18T07:03:37;102093.72;;;18.90;53.90
6028;BME280;3042;43.194;27.646;2023-03-18T07:06:05;102007.09;;;17.56;54.85
6028;BME280;3042;43.194;27.646;2023-03-18T07:08:34;102136.50;;;17.91;55.60
6028;BME280;3042;43.194;27.646;2023-03-18T07:11:02;102137.09;;;17.82;56.55
6028;BME280;3042;43.194;27.646;2023-03-18T07:13:29;102088.44;;;17.18;56.66
6028;BME280;3042;43.194;27.646;2023-03-18T07:15:57;102160.94;;;17.24;57.24
6028;BME280;3042;43.194;27.646;2023-03-18T07:18:25;102173.84;;;16.98;58.48
6028;BME280;3042;43.194;27.646;2023-03-18T07:20:52;102104.84;;;16.11;58.13
6028;BME280;3042;43.194;27.646;2023-03-18T07:23:19;102191.94;;;16.34;58.95
6028;BME280;3042;43.194;27.646;2023-03-18T07:25:46;102229.19;;;15.56;61.64
6028;BME280;3042;43.194;27.646;2023-03-18T07:28:13;102228.31;;;15.74;61.45
6028;BME280;3042;43.194;27.646;2023-03-18T07:30:41;102224.44;;;15.83;61.33
6028;BME280;3042;43.194;27.646;2023-03-18T07:33:09;102240.53;;;15.05;62.70
6028;BME280;3042;43.194;27.646;2023-03-18T07:35:36;102237.31;;;14.92;65.19
6028;BME280;3042;43.194;27.646;2023-03-18T07:38:05;102231.72;;;15.01;64.96
6028;BME280;3042;43.194;27.646;2023-03-18T07:40:32;102201.97;;;15.32;63.81
6028;BME280;3042;43.194;27.646;2023-03-18T07:43:00;102215.03;;;15.69;63.20
6028;BME280;3042;43.194;27.646;2023-03-18T07:45:27;102154.59;;;15.58;63.01
6028;BME280;3042;43.194;27.646;2023-03-18T07:47:54;102077.47;;;14.87;64.35
6028;BME280;3042;43.194;27.646;2023-03-18T07:50:23;102127.41;;;15.16;64.06
6028;BME280;3042;43.194;27.646;2023-03-18T07:52:50;102209.13;;;15.72;63.87
6028;BME280;3042;43.194;27.646;2023-03-18T07:55:17;102212.06;;;15.61;65.81
6028;BME280;3042;43.194;27.646;2023-03-18T07:57:44;102127.00;;;14.38;66.82
6028;BME280;3042;43.194;27.646;2023-03-18T08:00:13;102241.38;;;15.04;66.79
6028;BME280;3042;43.194;27.646;2023-03-18T08:02:41;102231.72;;;15.19;66.89
6028;BME280;3042;43.194;27.646;2023-03-18T08:05:09;102159.72;;;14.67;68.83
6028;BME280;3042;43.194;27.646;2023-03-18T08:07:37;102233.03;;;15.29;69.11
6028;BME280;3042;43.194;27.646;2023-03-18T08:10:05;102195.84;;;14.45;69.19
6028;BME280;3042;43.194;27.646;2023-03-18T08:12:33;102185.34;;;13.94;69.11
6028;BME280;3042;43.194;27.646;2023-03-18T08:15:00;102170.91;;;14.15;69.58
6028;BME280;3042;43.194;27.646;2023-03-18T08:17:27;102272.69;;;14.23;70.75
6028;BME280;3042;43.194;27.646;2023-03-18T08:19:54;102257.78;;;14.68;70.94
6028;BME280;3042;43.194;27.646;2023-03-18T08:22:21;102219.53;;;14.51;71.58
6028;BME280;3042;43.194;27.646;2023-03-18T08:24:51;102258.16;;;14.43;71.86
6028;BME280;3042;43.194;27.646;2023-03-18T08:27:18;102134.50;;;14.15;71.96
6028;BME280;3042;43.194;27.646;2023-03-18T08:29:45;102088.84;;;13.39;71.97
6028;BME280;3042;43.194;27.646;2023-03-18T08:32:12;102271.03;;;14.40;72.24
6028;BME280;3042;43.194;27.646;2023-03-18T08:34:39;102275.72;;;14.31;73.57
6028;BME280;3042;43.194;27.646;2023-03-18T08:37:07;102227.59;;;14.39;73.77
6028;BME280;3042;43.194;27.646;2023-03-18T08:39:34;102249.25;;;14.71;72.43
6028;BME280;3042;43.194;27.646;2023-03-18T08:42:03;102226.94;;;15.28;72.03
6028;BME280;3042;43.194;27.646;2023-03-18T08:44:30;102202.09;;;15.71;71.63
6028;BME280;3042;43.194;27.646;2023-03-18T08:46:57;102004.00;;;14.57;71.07
6028;BME280;3042;43.194;27.646;2023-03-18T08:49:24;102212.59;;;15.54;70.50
6028;BME280;3042;43.194;27.646;2023-03-18T08:51:52;102121.47;;;15.01;71.01
6028;BME280;3042;43.194;27.646;2023-03-18T08:54:19;102216.69;;;15.49;70.85
6028;BME280;3042;43.194;27.646;2023-03-18T08:56:46;102197.28;;;15.78;70.83
6028;BME280;3042;43.194;27.646;2023-03-18T08:59:14;102010.84;;;15.48;70.30
6028;BME280;3042;43.194;27.646;2023-03-18T09:01:42;102153.81;;;15.97;70.75
6028;BME280;3042;43.194;27.646;2023-03-18T09:04:09;102188.38;;;15.93;72.12
6028;BME280;3042;43.194;27.646;2023-03-18T09:06:36;102198.38;;;15.83;72.66
6028;BME280;3042;43.194;27.646;2023-03-18T09:09:04;102039.63;;;15.31;71.95
6028;BME280;3042;43.194;27.646;2023-03-18T09:11:31;102164.03;;;16.52;70.63
6028;BME280;3042;43.194;27.646;2023-03-18T09:13:58;102151.88;;;16.74;70.60
6028;BME280;3042;43.194;27.646;2023-03-18T09:16:27;102146.28;;;16.84;70.96
6028;BME280;3042;43.194;27.646;2023-03-18T09:18:54;102154.09;;;16.84;71.06
6028;BME280;3042;43.194;27.646;2023-03-18T09:21:21;102137.25;;;17.19;70.24
6028;BME280;3042;43.194;27.646;2023-03-18T09:23:48;102133.03;;;17.23;69.09
6028;BME280;3042;43.194;27.646;2023-03-18T09:26:18;102165.13;;;16.57;70.83
6028;BME280;3042;43.194;27.646;2023-03-18T09:28:45;102161.06;;;16.64;70.28
6028;BME280;3042;43.194;27.646;2023-03-18T09:31:12;102167.31;;;16.67;70.21
6028;BME280;3042;43.194;27.646;2023-03-18T09:33:41;102161.94;;;16.64;71.41
6028;BME280;3042;43.194;27.646;2023-03-18T09:36:09;102154.31;;;16.69;70.92
6028;BME280;3042;43.194;27.646;2023-03-18T09:38:36;102150.66;;;16.85;70.96
6028;BME280;3042;43.194;27.646;2023-03-18T09:41:06;102133.56;;;17.14;71.52
6028;BME280;3042;43.194;27.646;2023-03-18T09:43:55;102119.50;;;17.33;70.70
6028;BME280;3042;43.194;27.646;2023-03-18T09:46:30;102134.56;;;17.18;71.57
6028;BME280;3042;43.194;27.646;2023-03-18T09:49:15;102150.22;;;16.76;71.78
6028;BME280;3042;43.194;27.646;2023-03-18T09:51:52;102088.38;;;16.94;71.64
6028;BME280;3042;43.194;27.646;2023-03-18T09:54:30;102065.25;;;17.26;71.12
6028;BME280;3042;43.194;27.646;2023-03-18T09:56:59;102126.50;;;17.34;70.85
6028;BME280;3042;43.194;27.646;2023-03-18T09:59:36;102116.75;;;17.52;70.92
6028;BME280;3042;43.194;27.646;2023-03-18T10:02:16;102108.66;;;17.69;70.58
6028;BME280;3042;43.194;27.646;2023-03-18T10:04:48;102126.41;;;17.31;70.44
6028;BME280;3042;43.194;27.646;2023-03-18T10:07:21;102153.06;;;16.80;72.44
6028;BME280;3042;43.194;27.646;2023-03-18T10:09:53;102161.22;;;16.67;74.19
6028;BME280;3042;43.194;27.646;2023-03-18T10:12:28;102130.97;;;17.14;72.19
6028;BME280;3042;43.194;27.646;2023-03-18T10:15:03;101655.88;;;14.87;71.90
6028;BME280;3042;43.194;27.646;2023-03-18T10:17:37;102106.75;;;17.87;71.00
6028;BME280;3042;43.194;27.646;2023-03-18T10:20:15;102076.66;;;17.99;70.60
6028;BME280;3042;43.194;27.646;2023-03-18T10:22:59;102087.78;;;18.17;70.94
6028;BME280;3042;43.194;27.646;2023-03-18T10:25:34;102091.78;;;18.07;70.68
6028;BME280;3042;43.194;27.646;2023-03-18T10:28:28;102092.22;;;18.20;70.82
6028;BME280;3042;43.194;27.646;2023-03-18T10:31:03;102121.31;;;17.58;71.79
6028;BME280;3042;43.194;27.646;2023-03-18T10:33:41;102134.56;;;17.18;73.22
6028;BME280;3042;43.194;27.646;2023-03-18T10:36:17;102062.97;;;17.13;73.54
6028;BME280;3042;43.194;27.646;2023-03-18T10:38:48;102111.88;;;17.39;73.51
6028;BME280;3042;43.194;27.646;2023-03-18T10:41:20;102101.09;;;17.52;73.81
6028;BME280;3042;43.194;27.646;2023-03-18T10:43:49;102097.41;;;17.47;73.15
6028;BME280;3042;43.194;27.646;2023-03-18T10:46:19;101981.00;;;17.09;72.89
6028;BME280;3042;43.194;27.646;2023-03-18T10:48:50;102024.91;;;17.66;71.88
6028;BME280;3042;43.194;27.646;2023-03-18T10:51:25;101990.44;;;17.28;71.64
6028;BME280;3042;43.194;27.646;2023-03-18T10:53:58;102082.84;;;17.78;72.33
6028;BME280;3042;43.194;27.646;2023-03-18T10:56:28;102082.44;;;17.90;71.89
6028;BME280;3042;43.194;27.646;2023-03-18T10:58:56;102096.81;;;17.55;72.08
6028;BME280;3042;43.194;27.646;2023-03-18T11:01:24;102096.09;;;17.36;72.71
6028;BME280;3042;43.194;27.646;2023-03-18T11:03:59;102106.06;;;17.46;72.97
6028;BME280;3042;43.194;27.646;2023-03-18T11:06:36;102118.53;;;17.08;74.04
6028;BME280;3042;43.194;27.646;2023-03-18T11:09:09;102129.44;;;16.77;76.91
6028;BME280;3042;43.194;27.646;2023-03-18T11:11:38;102119.09;;;16.79;76.54
6028;BME280;3042;43.194;27.646;2023-03-18T11:14:10;101804.06;;;15.04;76.83
6028;BME280;3042;43.194;27.646;2023-03-18T11:16:41;102111.75;;;16.91;76.58
6028;BME280;3042;43.194;27.646;2023-03-18T11:19:28;102100.31;;;17.10;76.30
6028;BME280;3042;43.194;27.646;2023-03-18T11:22:03;102115.22;;;16.71;76.84
6028;BME280;3042;43.194;27.646;2023-03-18T11:24:31;102106.66;;;16.94;76.81
6028;BME280;3042;43.194;27.646;2023-03-18T11:27:23;102101.78;;;17.03;75.90
6028;BME280;3042;43.194;27.646;2023-03-18T11:29:57;102088.84;;;17.06;76.58
6028;BME280;3042;43.194;27.646;2023-03-18T11:32:26;101997.31;;;16.81;76.22
6028;BME280;3042;43.194;27.646;2023-03-18T11:34:55;102085.63;;;16.91;76.52
6028;BME280;3042;43.194;27.646;2023-03-18T11:37:29;102114.66;;;16.78;77.06
6028;BME280;3042;43.194;27.646;2023-03-18T11:40:15;102123.31;;;16.77;78.31
6028;BME280;3042;43.194;27.646;2023-03-18T11:42:44;102041.06;;;16.02;80.63
6028;BME280;3042;43.194;27.646;2023-03-18T11:45:38;102130.25;;;16.55;83.33
6028;BME280;3042;43.194;27.646;2023-03-18T11:48:14;102136.22;;;16.12;84.23
6028;BME280;3042;43.194;27.646;2023-03-18T11:50:58;102156.63;;;15.64;85.04
6028;BME280;3042;43.194;27.646;2023-03-18T11:53:38;102150.69;;;15.86;86.59
6028;BME280;3042;43.194;27.646;2023-03-18T11:56:15;102149.06;;;15.88;86.79
6028;BME280;3042;43.194;27.646;2023-03-18T11:59:24;102125.63;;;16.29;88.02
6028;BME280;3042;43.194;27.646;2023-03-18T12:02:03;102127.28;;;16.27;89.17
6028;BME280;3042;43.194;27.646;2023-03-18T12:04:44;102129.44;;;16.16;89.75
6028;BME280;3042;43.194;27.646;2023-03-18T12:07:28;102144.47;;;16.02;90.34
6028;BME280;3042;43.194;27.646;2023-03-18T12:10:14;102130.38;;;15.41;90.67
6028;BME280;3042;43.194;27.646;2023-03-18T12:12:51;102070.69;;;15.28;91.68
6028;BME280;3042;43.194;27.646;2023-03-18T12:15:30;102129.78;;;16.04;92.35
6028;BME280;3042;43.194;27.646;2023-03-18T12:18:07;102138.34;;;15.82;91.98
6028;BME280;3042;43.194;27.646;2023-03-18T12:20:51;102056.56;;;15.23;92.00
6028;BME280;3042;43.194;27.646;2023-03-18T12:23:41;102101.91;;;15.64;93.35
6028;BME280;3042;43.194;27.646;2023-03-18T12:26:16;102053.88;;;15.39;94.08
6028;BME280;3042;43.194;27.646;2023-03-18T12:29:07;102121.97;;;15.67;93.86
6028;BME280;3042;43.194;27.646;2023-03-18T12:31:47;102113.09;;;16.41;94.64
6028;BME280;3042;43.194;27.646;2023-03-18T12:34:33;102105.63;;;16.70;94.94
6028;BME280;3042;43.194;27.646;2023-03-18T12:37:18;102109.25;;;16.73;95.64
6028;BME280;3042;43.194;27.646;2023-03-18T12:43:13;102101.97;;;16.66;97.16
6028;BME280;3042;43.194;27.646;2023-03-18T12:45:47;102118.13;;;16.36;97.66
6028;BME280;3042;43.194;27.646;2023-03-18T12:48:19;102015.47;;;15.35;94.17
6028;BME280;3042;43.194;27.646;2023-03-18T12:50:52;102146.25;;;15.83;92.32
6028;BME280;3042;43.194;27.646;2023-03-18T12:53:27;102126.47;;;16.08;93.73
6028;BME280;3042;43.194;27.646;2023-03-18T12:55:58;102137.19;;;16.14;94.57
6028;BME280;3042;43.194;27.646;2023-03-18T12:58:30;102117.03;;;16.51;95.13
6028;BME280;3042;43.194;27.646;2023-03-18T13:01:03;102009.03;;;15.47;92.13
6028;BME280;3042;43.194;27.646;2023-03-18T13:03:33;102146.56;;;15.72;94.34
6028;BME280;3042;43.194;27.646;2023-03-18T13:06:04;102170.19;;;15.21;97.64
6028;BME280;3042;43.194;27.646;2023-03-18T13:08:58;102149.13;;;15.16;97.17
6028;BME280;3042;43.194;27.646;2023-03-18T13:14:49;102074.28;;;15.30;100.00
6028;BME280;3042;43.194;27.646;2023-03-18T13:17:22;102092.69;;;15.53;100.00
6028;BME280;3042;43.194;27.646;2023-03-18T13:19:50;102041.81;;;15.41;99.56
6028;BME280;3042;43.194;27.646;2023-03-18T13:22:45;102138.56;;;16.06;97.29
6028;BME280;3042;43.194;27.646;2023-03-18T13:25:23;102134.84;;;16.01;99.41